createdAt,value
2023-03-31T00:02:24.755Z,1.4
2023-03-31T00:17:59.226Z,1.3
2023-03-31T00:33:34.043Z,1.3
2023-03-31T00:49:08.088Z,1.1
2023-03-31T01:04:42.131Z,1.1
2023-03-31T01:20:16.146Z,1.3
2023-03-31T01:35:50.232Z,1.2
2023-03-31T01:51:24.387Z,1.3
2023-03-31T02:06:58.411Z,1.2
2023-03-31T02:22:32.459Z,1.1
2023-03-31T02:38:06.503Z,1.1
2023-03-31T02:53:40.612Z,1.4
2023-03-31T03:09:14.714Z,0.9
2023-03-31T03:24:48.758Z,1.5
2023-03-31T03:40:22.829Z,1.2
2023-03-31T03:55:56.870Z,1.4
2023-03-31T04:11:30.883Z,1.6
2023-03-31T04:27:04.972Z,1.7
2023-03-31T04:42:39.117Z,1.9
2023-03-31T04:58:13.248Z,1.7
2023-03-31T05:13:47.285Z,1.5
2023-03-31T05:29:21.384Z,2.1
2023-03-31T05:44:55.453Z,1.5
2023-03-31T06:00:29.611Z,1.5
2023-03-31T06:16:03.765Z,1.4
2023-03-31T06:31:38.136Z,2.8
2023-03-31T06:47:12.541Z,1.7
2023-03-31T07:02:46.785Z,1.5
2023-03-31T07:18:21.748Z,1.9
2023-03-31T07:33:55.810Z,1.9
2023-03-31T07:49:29.936Z,1.7
2023-03-31T08:05:04.124Z,2.2
2023-03-31T08:20:38.270Z,1.4
2023-03-31T08:36:12.389Z,1.3
2023-03-31T08:51:46.715Z,1.6
2023-03-31T09:07:20.780Z,2
2023-03-31T09:22:55.280Z,1.1
2023-03-31T09:38:29.349Z,1.1
2023-03-31T09:54:03.446Z,1.4
2023-03-31T10:09:37.524Z,1.3
2023-03-31T10:25:11.679Z,1.1
2023-03-31T10:40:46.235Z,1.2
2023-03-31T10:56:20.457Z,1.4
2023-03-31T11:11:54.508Z,1.6
2023-03-31T11:27:28.576Z,1
2023-03-31T11:43:02.654Z,1.1
2023-03-31T11:58:36.760Z,0.7
2023-03-31T12:14:10.858Z,0.7
2023-03-31T12:29:44.990Z,1.1
2023-03-31T12:45:18.933Z,1.1
2023-03-31T13:00:53.122Z,1.4
2023-03-31T13:16:27.408Z,1.2
2023-03-31T13:32:01.735Z,0.7
2023-03-31T13:47:36.242Z,1.2
2023-03-31T14:03:10.610Z,0.6
2023-03-31T14:18:45.034Z,0.8
2023-03-31T14:34:19.092Z,0.6
2023-03-31T14:49:53.182Z,0.7
2023-03-31T15:05:27.315Z,0.7
2023-03-31T15:21:01.637Z,0.7
2023-03-31T15:36:35.855Z,1.2
2023-03-31T15:52:10.035Z,0.8
2023-03-31T16:07:44.119Z,0.7
2023-03-31T16:23:18.271Z,0.8
2023-03-31T16:38:52.462Z,0.8
2023-03-31T16:54:26.522Z,0.5
2023-03-31T17:10:00.848Z,0.4
2023-03-31T17:25:34.897Z,1
2023-03-31T17:41:08.957Z,0.8
2023-03-31T17:56:43.032Z,0.9
2023-03-31T18:12:17.095Z,1.1
2023-03-31T18:27:51.217Z,1.5
2023-03-31T18:43:25.265Z,1.5
2023-03-31T18:58:59.377Z,1.3
2023-03-31T19:14:33.513Z,1
2023-03-31T19:30:07.540Z,1
2023-03-31T19:45:41.585Z,1.4
2023-03-31T20:01:15.718Z,1.1
2023-03-31T20:16:50.232Z,1.1
2023-03-31T20:32:24.455Z,1
2023-03-31T20:47:58.661Z,1.1
2023-03-31T21:03:33.076Z,0.7
2023-03-31T21:19:07.295Z,0.5
2023-03-31T21:34:41.396Z,0.9
2023-03-31T21:50:15.401Z,0.9
2023-03-31T22:05:49.418Z,1.1
2023-03-31T22:21:23.478Z,1.3
2023-03-31T22:36:57.551Z,0.9
2023-03-31T22:52:31.570Z,1
2023-03-31T23:08:05.584Z,0.6
2023-03-31T23:23:39.625Z,1.2
2023-03-31T23:39:13.646Z,1
2023-03-31T23:54:47.657Z,1
